Terminal Aerodrome Forecast
Issued by NWS Blacksburg, VA

Current Version | Previous Version | Graphics & Text | Print | Product List | Glossary On
Versions: 1 2 3 4 5 6 7 8 9 10 11 12 13 14
000
FTUS41 KRNK 150540
TAFBLF
TAF
KBLF 150540Z 1506/1606 VRB04KT P6SM BKN023
     FM151000 04004KT P6SM -FZDZ OVC015
     FM151500 27010G20KT P6SM OVC030=

USA.gov is the U.S. government's official web portal to all federal, state and local government web resources and services.